sensor_id;sensor_type;location;lat;lon;timestamp;pressure;altitude;pressure_sealevel;temperature;humidity
59608;BME280;45426;44.726;10.390;2023-10-31T00:00:47;99046.00;;;19.34;100.00
59608;BME280;45426;44.726;10.390;2023-10-31T00:03:12;99060.31;;;19.29;100.00
59608;BME280;45426;44.726;10.390;2023-10-31T00:05:38;99052.28;;;19.54;100.00
59608;BME280;45426;44.726;10.390;2023-10-31T00:08:04;99054.25;;;19.54;100.00
59608;BME280;45426;44.726;10.390;2023-10-31T00:10:29;99057.16;;;19.47;100.00
59608;BME280;45426;44.726;10.390;2023-10-31T00:12:54;99053.22;;;19.48;100.00
59608;BME280;45426;44.726;10.390;2023-10-31T00:15:20;99062.16;;;19.52;100.00
59608;BME280;45426;44.726;10.390;2023-10-31T00:17:46;99059.75;;;19.17;100.00
59608;BME280;45426;44.726;10.390;2023-10-31T00:20:11;99073.47;;;19.37;100.00
59608;BME280;45426;44.726;10.390;2023-10-31T00:22:37;99084.06;;;18.99;100.00
59608;BME280;45426;44.726;10.390;2023-10-31T00:25:02;99075.66;;;18.86;100.00
59608;BME280;45426;44.726;10.390;2023-10-31T00:27:28;99077.41;;;18.96;100.00
59608;BME280;45426;44.726;10.390;2023-10-31T00:29:53;99075.19;;;19.11;100.00
59608;BME280;45426;44.726;10.390;2023-10-31T00:32:19;99083.06;;;18.66;100.00
59608;BME280;45426;44.726;10.390;2023-10-31T00:34:44;99071.13;;;18.52;100.00
59608;BME280;45426;44.726;10.390;2023-10-31T00:37:10;99067.69;;;18.92;100.00
59608;BME280;45426;44.726;10.390;2023-10-31T00:39:35;99046.75;;;19.54;100.00
59608;BME280;45426;44.726;10.390;2023-10-31T00:42:01;99062.38;;;19.61;100.00
59608;BME280;45426;44.726;10.390;2023-10-31T00:44:26;99061.53;;;19.64;100.00
59608;BME280;45426;44.726;10.390;2023-10-31T00:46:51;99063.25;;;19.94;100.00
59608;BME280;45426;44.726;10.390;2023-10-31T00:49:17;99050.19;;;19.22;100.00
59608;BME280;45426;44.726;10.390;2023-10-31T00:51:42;99049.72;;;19.27;100.00
59608;BME280;45426;44.726;10.390;2023-10-31T00:54:08;99034.16;;;19.37;100.00
59608;BME280;45426;44.726;10.390;2023-10-31T00:56:33;99044.28;;;19.24;100.00
59608;BME280;45426;44.726;10.390;2023-10-31T00:59:00;99056.47;;;18.83;100.00
59608;BME280;45426;44.726;10.390;2023-10-31T01:01:25;99043.56;;;18.76;100.00
59608;BME280;45426;44.726;10.390;2023-10-31T01:03:51;99044.72;;;18.35;100.00
59608;BME280;45426;44.726;10.390;2023-10-31T01:06:16;99041.97;;;18.78;100.00
59608;BME280;45426;44.726;10.390;2023-10-31T01:08:41;99033.22;;;18.63;100.00
59608;BME280;45426;44.726;10.390;2023-10-31T01:11:07;99027.00;;;18.36;100.00
59608;BME280;45426;44.726;10.390;2023-10-31T01:13:32;99026.69;;;18.07;100.00
59608;BME280;45426;44.726;10.390;2023-10-31T01:15:58;99015.59;;;18.37;100.00
59608;BME280;45426;44.726;10.390;2023-10-31T01:18:23;99006.22;;;18.11;100.00
59608;BME280;45426;44.726;10.390;2023-10-31T01:20:49;99005.97;;;18.26;100.00
59608;BME280;45426;44.726;10.390;2023-10-31T01:23:14;99013.72;;;18.31;100.00
59608;BME280;45426;44.726;10.390;2023-10-31T01:25:40;99001.78;;;18.17;100.00
59608;BME280;45426;44.726;10.390;2023-10-31T01:28:05;99005.19;;;18.01;100.00
59608;BME280;45426;44.726;10.390;2023-10-31T01:30:31;99011.34;;;18.33;100.00
59608;BME280;45426;44.726;10.390;2023-10-31T01:32:57;99014.75;;;18.17;100.00
59608;BME280;45426;44.726;10.390;2023-10-31T01:35:22;99008.16;;;18.58;100.00
59608;BME280;45426;44.726;10.390;2023-10-31T01:37:48;99002.50;;;18.89;100.00
59608;BME280;45426;44.726;10.390;2023-10-31T01:40:13;98997.84;;;18.86;100.00
59608;BME280;45426;44.726;10.390;2023-10-31T01:42:38;99000.84;;;19.11;100.00
59608;BME280;45426;44.726;10.390;2023-10-31T01:45:04;98997.50;;;18.60;100.00
59608;BME280;45426;44.726;10.390;2023-10-31T01:47:32;99001.84;;;17.90;100.00
59608;BME280;45426;44.726;10.390;2023-10-31T01:49:58;98993.16;;;17.64;100.00
59608;BME280;45426;44.726;10.390;2023-10-31T01:52:25;98983.97;;;17.75;100.00
59608;BME280;45426;44.726;10.390;2023-10-31T01:54:50;98981.25;;;18.02;100.00
59608;BME280;45426;44.726;10.390;2023-10-31T01:57:18;98985.31;;;17.94;100.00
59608;BME280;45426;44.726;10.390;2023-10-31T01:59:44;98981.31;;;17.71;100.00
59608;BME280;45426;44.726;10.390;2023-10-31T02:02:10;98979.94;;;17.83;100.00
59608;BME280;45426;44.726;10.390;2023-10-31T02:04:35;98991.41;;;17.78;100.00
59608;BME280;45426;44.726;10.390;2023-10-31T02:07:00;98982.19;;;17.64;100.00
59608;BME280;45426;44.726;10.390;2023-10-31T02:09:26;98994.22;;;17.47;100.00
59608;BME280;45426;44.726;10.390;2023-10-31T02:11:54;98979.47;;;17.34;100.00
59608;BME280;45426;44.726;10.390;2023-10-31T02:14:21;98970.56;;;17.26;100.00
59608;BME280;45426;44.726;10.390;2023-10-31T02:16:47;98966.53;;;17.34;100.00
59608;BME280;45426;44.726;10.390;2023-10-31T02:19:15;98953.22;;;17.33;100.00
59608;BME280;45426;44.726;10.390;2023-10-31T02:21:43;98962.69;;;17.28;100.00
59608;BME280;45426;44.726;10.390;2023-10-31T02:24:09;98947.50;;;16.93;100.00
59608;BME280;45426;44.726;10.390;2023-10-31T02:26:34;98944.28;;;16.98;100.00
59608;BME280;45426;44.726;10.390;2023-10-31T02:29:01;98933.81;;;17.47;100.00
59608;BME280;45426;44.726;10.390;2023-10-31T02:31:27;98933.66;;;17.31;100.00
59608;BME280;45426;44.726;10.390;2023-10-31T02:33:52;98930.94;;;17.54;100.00
59608;BME280;45426;44.726;10.390;2023-10-31T02:36:18;98938.97;;;17.96;100.00
59608;BME280;45426;44.726;10.390;2023-10-31T02:38:45;98929.81;;;18.02;100.00
59608;BME280;45426;44.726;10.390;2023-10-31T02:41:11;98924.88;;;18.14;100.00
59608;BME280;45426;44.726;10.390;2023-10-31T02:43:38;98940.63;;;17.62;100.00
59608;BME280;45426;44.726;10.390;2023-10-31T02:46:03;98947.28;;;17.38;100.00
59608;BME280;45426;44.726;10.390;2023-10-31T02:48:29;98937.66;;;17.22;100.00
59608;BME280;45426;44.726;10.390;2023-10-31T02:50:57;98933.88;;;17.13;100.00
59608;BME280;45426;44.726;10.390;2023-10-31T02:53:23;98949.63;;;17.08;100.00
59608;BME280;45426;44.726;10.390;2023-10-31T02:55:48;98937.47;;;16.75;100.00
59608;BME280;45426;44.726;10.390;2023-10-31T02:58:14;98924.66;;;16.99;100.00
59608;BME280;45426;44.726;10.390;2023-10-31T03:00:39;98938.09;;;16.90;100.00
59608;BME280;45426;44.726;10.390;2023-10-31T03:03:05;98911.97;;;17.09;100.00
59608;BME280;45426;44.726;10.390;2023-10-31T03:05:30;98906.53;;;17.05;100.00
59608;BME280;45426;44.726;10.390;2023-10-31T03:07:56;98891.91;;;16.85;100.00
59608;BME280;45426;44.726;10.390;2023-10-31T03:10:21;98914.56;;;16.93;100.00
59608;BME280;45426;44.726;10.390;2023-10-31T03:12:47;98922.31;;;16.98;100.00
59608;BME280;45426;44.726;10.390;2023-10-31T03:15:13;98916.84;;;18.03;100.00
59608;BME280;45426;44.726;10.390;2023-10-31T03:17:38;98907.03;;;18.46;100.00
59608;BME280;45426;44.726;10.390;2023-10-31T03:20:04;98905.84;;;18.47;100.00
59608;BME280;45426;44.726;10.390;2023-10-31T03:22:30;98878.41;;;18.63;100.00
59608;BME280;45426;44.726;10.390;2023-10-31T03:24:55;98885.00;;;18.06;100.00
59608;BME280;45426;44.726;10.390;2023-10-31T03:27:21;98892.28;;;17.45;100.00
59608;BME280;45426;44.726;10.390;2023-10-31T03:29:46;98893.81;;;17.46;100.00
59608;BME280;45426;44.726;10.390;2023-10-31T03:32:12;98889.53;;;17.45;100.00
59608;BME280;45426;44.726;10.390;2023-10-31T03:34:38;98876.28;;;17.40;100.00
59608;BME280;45426;44.726;10.390;2023-10-31T03:37:04;98879.75;;;17.68;100.00
59608;BME280;45426;44.726;10.390;2023-10-31T03:39:30;98873.97;;;17.62;100.00
59608;BME280;45426;44.726;10.390;2023-10-31T03:41:55;98888.22;;;17.26;100.00
59608;BME280;45426;44.726;10.390;2023-10-31T03:44:21;98897.94;;;17.03;100.00
59608;BME280;45426;44.726;10.390;2023-10-31T03:46:46;98907.38;;;17.02;100.00
59608;BME280;45426;44.726;10.390;2023-10-31T03:49:12;98906.84;;;16.84;100.00
59608;BME280;45426;44.726;10.390;2023-10-31T03:51:37;98885.13;;;16.62;100.00
59608;BME280;45426;44.726;10.390;2023-10-31T03:54:03;98889.88;;;16.58;100.00
59608;BME280;45426;44.726;10.390;2023-10-31T03:56:28;98897.91;;;16.76;100.00
59608;BME280;45426;44.726;10.390;2023-10-31T03:58:54;98895.97;;;16.73;100.00
59608;BME280;45426;44.726;10.390;2023-10-31T04:01:19;98896.09;;;16.62;100.00
59608;BME280;45426;44.726;10.390;2023-10-31T04:03:45;98880.81;;;17.50;100.00
59608;BME280;45426;44.726;10.390;2023-10-31T04:06:10;98893.28;;;18.26;100.00
59608;BME280;45426;44.726;10.390;2023-10-31T04:08:36;98897.59;;;18.87;100.00
59608;BME280;45426;44.726;10.390;2023-10-31T04:11:01;98893.31;;;18.86;100.00
59608;BME280;45426;44.726;10.390;2023-10-31T04:13:27;98899.66;;;18.83;100.00
59608;BME280;45426;44.726;10.390;2023-10-31T04:15:52;98910.69;;;18.79;100.00
59608;BME280;45426;44.726;10.390;2023-10-31T04:18:18;98915.16;;;18.93;100.00
59608;BME280;45426;44.726;10.390;2023-10-31T04:20:44;98902.59;;;18.92;100.00
59608;BME280;45426;44.726;10.390;2023-10-31T04:23:09;98891.25;;;18.90;100.00
59608;BME280;45426;44.726;10.390;2023-10-31T04:25:36;98886.50;;;18.30;100.00
59608;BME280;45426;44.726;10.390;2023-10-31T04:28:02;98877.94;;;18.48;100.00
59608;BME280;45426;44.726;10.390;2023-10-31T04:30:27;98871.94;;;18.33;100.00
59608;BME280;45426;44.726;10.390;2023-10-31T04:32:54;98852.03;;;18.06;100.00
59608;BME280;45426;44.726;10.390;2023-10-31T04:35:19;98856.59;;;18.12;100.00
59608;BME280;45426;44.726;10.390;2023-10-31T04:37:45;98844.75;;;17.95;100.00
59608;BME280;45426;44.726;10.390;2023-10-31T04:40:11;98807.50;;;19.07;100.00
59608;BME280;45426;44.726;10.390;2023-10-31T04:42:38;98786.00;;;19.35;100.00
59608;BME280;45426;44.726;10.390;2023-10-31T04:45:05;98825.97;;;18.54;100.00
59608;BME280;45426;44.726;10.390;2023-10-31T04:47:31;98802.50;;;19.02;100.00
59608;BME280;45426;44.726;10.390;2023-10-31T04:49:56;98808.44;;;19.17;100.00
59608;BME280;45426;44.726;10.390;2023-10-31T04:52:22;98792.53;;;18.92;100.00
59608;BME280;45426;44.726;10.390;2023-10-31T04:54:48;98797.72;;;19.06;100.00
59608;BME280;45426;44.726;10.390;2023-10-31T04:57:13;98827.88;;;18.93;100.00
59608;BME280;45426;44.726;10.390;2023-10-31T04:59:38;98831.72;;;18.59;100.00
59608;BME280;45426;44.726;10.390;2023-10-31T05:02:04;98827.91;;;18.53;100.00
59608;BME280;45426;44.726;10.390;2023-10-31T05:04:29;98837.94;;;18.84;100.00
59608;BME280;45426;44.726;10.390;2023-10-31T05:06:55;98861.16;;;18.79;100.00
59608;BME280;45426;44.726;10.390;2023-10-31T05:09:21;98874.66;;;18.73;100.00
59608;BME280;45426;44.726;10.390;2023-10-31T05:11:46;98892.88;;;18.67;100.00
59608;BME280;45426;44.726;10.390;2023-10-31T05:14:12;98912.97;;;18.84;100.00
59608;BME280;45426;44.726;10.390;2023-10-31T05:16:41;98928.53;;;18.91;100.00
59608;BME280;45426;44.726;10.390;2023-10-31T05:19:07;98938.63;;;18.77;100.00
59608;BME280;45426;44.726;10.390;2023-10-31T05:21:32;98958.63;;;18.81;100.00
59608;BME280;45426;44.726;10.390;2023-10-31T05:23:58;98956.69;;;18.78;100.00
59608;BME280;45426;44.726;10.390;2023-10-31T05:26:23;98981.94;;;18.73;100.00
59608;BME280;45426;44.726;10.390;2023-10-31T05:28:49;98983.28;;;18.65;100.00
59608;BME280;45426;44.726;10.390;2023-10-31T05:31:17;98988.56;;;18.32;100.00
59608;BME280;45426;44.726;10.390;2023-10-31T05:33:42;98982.19;;;18.59;100.00
59608;BME280;45426;44.726;10.390;2023-10-31T05:36:18;98975.88;;;18.62;100.00
59608;BME280;45426;44.726;10.390;2023-10-31T05:38:44;98981.34;;;18.86;100.00
59608;BME280;45426;44.726;10.390;2023-10-31T05:41:09;98981.59;;;18.71;100.00
59608;BME280;45426;44.726;10.390;2023-10-31T05:43:34;99006.69;;;18.73;100.00
59608;BME280;45426;44.726;10.390;2023-10-31T05:46:00;99026.19;;;18.59;100.00
59608;BME280;45426;44.726;10.390;2023-10-31T05:48:25;99037.81;;;18.47;100.00
59608;BME280;45426;44.726;10.390;2023-10-31T05:50:51;99050.50;;;18.40;100.00
59608;BME280;45426;44.726;10.390;2023-10-31T05:53:16;99065.09;;;18.10;100.00
59608;BME280;45426;44.726;10.390;2023-10-31T05:55:41;99060.22;;;18.21;100.00
59608;BME280;45426;44.726;10.390;2023-10-31T05:58:07;99031.84;;;18.28;100.00
59608;BME280;45426;44.726;10.390;2023-10-31T06:00:32;99034.22;;;17.75;100.00
59608;BME280;45426;44.726;10.390;2023-10-31T06:02:58;99039.50;;;17.90;100.00
59608;BME280;45426;44.726;10.390;2023-10-31T06:05:23;99061.13;;;18.15;100.00
59608;BME280;45426;44.726;10.390;2023-10-31T06:07:48;99065.59;;;18.29;100.00
59608;BME280;45426;44.726;10.390;2023-10-31T06:10:14;99099.16;;;18.43;100.00
59608;BME280;45426;44.726;10.390;2023-10-31T06:12:39;99094.22;;;18.08;100.00
59608;BME280;45426;44.726;10.390;2023-10-31T06:15:05;99105.66;;;18.30;100.00
59608;BME280;45426;44.726;10.390;2023-10-31T06:17:30;99114.69;;;18.30;100.00
59608;BME280;45426;44.726;10.390;2023-10-31T06:19:58;99120.63;;;18.25;100.00
59608;BME280;45426;44.726;10.390;2023-10-31T06:22:24;99128.84;;;18.01;100.00
59608;BME280;45426;44.726;10.390;2023-10-31T06:24:50;99135.72;;;17.86;100.00
59608;BME280;45426;44.726;10.390;2023-10-31T06:27:15;99135.38;;;18.11;100.00
59608;BME280;45426;44.726;10.390;2023-10-31T06:29:40;99151.22;;;18.27;100.00
59608;BME280;45426;44.726;10.390;2023-10-31T06:32:06;99155.03;;;18.88;100.00
59608;BME280;45426;44.726;10.390;2023-10-31T06:34:31;99167.72;;;18.81;100.00
59608;BME280;45426;44.726;10.390;2023-10-31T06:36:57;99177.84;;;18.34;100.00
59608;BME280;45426;44.726;10.390;2023-10-31T06:39:22;99196.06;;;18.24;100.00
59608;BME280;45426;44.726;10.390;2023-10-31T06:41:48;99255.53;;;18.96;100.00
59608;BME280;45426;44.726;10.390;2023-10-31T06:44:13;99251.47;;;17.46;100.00
59608;BME280;45426;44.726;10.390;2023-10-31T06:46:39;99278.41;;;16.61;100.00
59608;BME280;45426;44.726;10.390;2023-10-31T06:49:04;99280.09;;;17.49;100.00
59608;BME280;45426;44.726;10.390;2023-10-31T06:51:30;99284.47;;;16.24;100.00
59608;BME280;45426;44.726;10.390;2023-10-31T06:53:55;99304.53;;;15.99;100.00
59608;BME280;45426;44.726;10.390;2023-10-31T06:56:20;99300.66;;;15.57;100.00
59608;BME280;45426;44.726;10.390;2023-10-31T06:58:46;99307.28;;;15.63;100.00
59608;BME280;45426;44.726;10.390;2023-10-31T07:01:11;99313.97;;;15.23;100.00
59608;BME280;45426;44.726;10.390;2023-10-31T07:03:39;99324.13;;;15.22;100.00
59608;BME280;45426;44.726;10.390;2023-10-31T07:06:04;99333.09;;;15.12;100.00
59608;BME280;45426;44.726;10.390;2023-10-31T07:08:30;99349.88;;;15.03;100.00
59608;BME280;45426;44.726;10.390;2023-10-31T07:10:55;99363.88;;;14.73;100.00
59608;BME280;45426;44.726;10.390;2023-10-31T07:13:20;99370.91;;;14.67;100.00
59608;BME280;45426;44.726;10.390;2023-10-31T07:15:46;99364.69;;;14.77;100.00
59608;BME280;45426;44.726;10.390;2023-10-31T07:18:12;99365.34;;;14.52;100.00
59608;BME280;45426;44.726;10.390;2023-10-31T07:20:38;99374.78;;;14.66;100.00
59608;BME280;45426;44.726;10.390;2023-10-31T07:23:03;99359.84;;;14.42;100.00
59608;BME280;45426;44.726;10.390;2023-10-31T07:25:28;99361.44;;;14.46;100.00
59608;BME280;45426;44.726;10.390;2023-10-31T07:27:54;99360.97;;;14.30;100.00
59608;BME280;45426;44.726;10.390;2023-10-31T07:30:19;99355.13;;;14.31;100.00
59608;BME280;45426;44.726;10.390;2023-10-31T07:32:45;99370.13;;;14.66;100.00
59608;BME280;45426;44.726;10.390;2023-10-31T07:35:10;99359.16;;;14.59;100.00
59608;BME280;45426;44.726;10.390;2023-10-31T07:37:36;99355.25;;;14.64;100.00
59608;BME280;45426;44.726;10.390;2023-10-31T07:40:01;99352.13;;;14.62;100.00
59608;BME280;45426;44.726;10.390;2023-10-31T07:42:29;99357.28;;;14.92;100.00
59608;BME280;45426;44.726;10.390;2023-10-31T07:44:54;99364.31;;;14.82;100.00
59608;BME280;45426;44.726;10.390;2023-10-31T07:47:21;99367.09;;;15.14;100.00
59608;BME280;45426;44.726;10.390;2023-10-31T07:49:46;99363.19;;;15.05;100.00
59608;BME280;45426;44.726;10.390;2023-10-31T07:52:13;99366.69;;;15.02;100.00
59608;BME280;45426;44.726;10.390;2023-10-31T07:54:39;99365.94;;;15.08;100.00
59608;BME280;45426;44.726;10.390;2023-10-31T07:57:06;99374.16;;;15.48;100.00
59608;BME280;45426;44.726;10.390;2023-10-31T07:59:35;99383.53;;;15.54;100.00
59608;BME280;45426;44.726;10.390;2023-10-31T08:02:00;99382.78;;;15.61;100.00
59608;BME280;45426;44.726;10.390;2023-10-31T08:04:26;99380.84;;;15.83;100.00
59608;BME280;45426;44.726;10.390;2023-10-31T08:06:53;99400.41;;;15.88;100.00
59608;BME280;45426;44.726;10.390;2023-10-31T08:09:18;99399.97;;;15.61;100.00
59608;BME280;45426;44.726;10.390;2023-10-31T08:11:44;99415.53;;;16.43;100.00
59608;BME280;45426;44.726;10.390;2023-10-31T08:14:09;99408.09;;;17.36;100.00
59608;BME280;45426;44.726;10.390;2023-10-31T08:16:35;99407.13;;;17.01;100.00
59608;BME280;45426;44.726;10.390;2023-10-31T08:19:01;99413.25;;;17.23;100.00
59608;BME280;45426;44.726;10.390;2023-10-31T08:21:27;99417.16;;;17.78;100.00
59608;BME280;45426;44.726;10.390;2023-10-31T08:23:58;99412.53;;;19.16;100.00
59608;BME280;45426;44.726;10.390;2023-10-31T08:26:24;99420.66;;;19.50;100.00
59608;BME280;45426;44.726;10.390;2023-10-31T08:28:49;99430.25;;;20.36;100.00
59608;BME280;45426;44.726;10.390;2023-10-31T08:31:16;99430.97;;;20.41;100.00
59608;BME280;45426;44.726;10.390;2023-10-31T08:33:42;99424.38;;;19.64;100.00
59608;BME280;45426;44.726;10.390;2023-10-31T08:36:07;99455.00;;;19.15;100.00
59608;BME280;45426;44.726;10.390;2023-10-31T08:38:34;99455.19;;;18.32;100.00
59608;BME280;45426;44.726;10.390;2023-10-31T08:40:59;99458.59;;;18.01;100.00
59608;BME280;45426;44.726;10.390;2023-10-31T08:43:25;99463.09;;;18.26;100.00
59608;BME280;45426;44.726;10.390;2023-10-31T08:45:50;99481.13;;;17.78;100.00
59608;BME280;45426;44.726;10.390;2023-10-31T08:48:16;99476.63;;;18.02;100.00
59608;BME280;45426;44.726;10.390;2023-10-31T08:50:41;99480.13;;;18.07;100.00
59608;BME280;45426;44.726;10.390;2023-10-31T08:53:06;99487.00;;;17.80;100.00
59608;BME280;45426;44.726;10.390;2023-10-31T08:55:32;99486.16;;;17.91;100.00
59608;BME280;45426;44.726;10.390;2023-10-31T08:57:57;99487.09;;;17.66;100.00
59608;BME280;45426;44.726;10.390;2023-10-31T09:00:23;99489.91;;;17.55;100.00
59608;BME280;45426;44.726;10.390;2023-10-31T09:02:48;99498.81;;;18.26;100.00
59608;BME280;45426;44.726;10.390;2023-10-31T09:05:14;99493.78;;;17.65;100.00
59608;BME280;45426;44.726;10.390;2023-10-31T09:07:39;99504.69;;;17.76;100.00
59608;BME280;45426;44.726;10.390;2023-10-31T09:10:06;99495.56;;;17.93;100.00
59608;BME280;45426;44.726;10.390;2023-10-31T09:12:31;99501.69;;;18.12;100.00
59608;BME280;45426;44.726;10.390;2023-10-31T09:14:57;99497.94;;;17.84;100.00
59608;BME280;45426;44.726;10.390;2023-10-31T09:17:22;99501.56;;;18.26;100.00
59608;BME280;45426;44.726;10.390;2023-10-31T09:19:48;99507.94;;;18.16;100.00
59608;BME280;45426;44.726;10.390;2023-10-31T09:22:13;99512.34;;;18.48;100.00
59608;BME280;45426;44.726;10.390;2023-10-31T09:24:38;99515.88;;;18.07;100.00
59608;BME280;45426;44.726;10.390;2023-10-31T09:27:05;99523.84;;;18.39;100.00
59608;BME280;45426;44.726;10.390;2023-10-31T09:29:30;99527.03;;;17.85;100.00
59608;BME280;45426;44.726;10.390;2023-10-31T09:31:56;99530.69;;;18.20;100.00
59608;BME280;45426;44.726;10.390;2023-10-31T09:34:22;99525.19;;;18.20;100.00
59608;BME280;45426;44.726;10.390;2023-10-31T09:36:47;99537.69;;;18.28;100.00
59608;BME280;45426;44.726;10.390;2023-10-31T09:39:12;99537.25;;;18.75;100.00
59608;BME280;45426;44.726;10.390;2023-10-31T09:41:38;99537.34;;;18.64;100.00
59608;BME280;45426;44.726;10.390;2023-10-31T09:44:04;99536.56;;;19.01;100.00
59608;BME280;45426;44.726;10.390;2023-10-31T09:46:29;99536.97;;;19.34;100.00
59608;BME280;45426;44.726;10.390;2023-10-31T09:48:55;99548.41;;;19.33;100.00
59608;BME280;45426;44.726;10.390;2023-10-31T09:51:21;99549.75;;;19.48;100.00
59608;BME280;45426;44.726;10.390;2023-10-31T09:53:47;99560.19;;;19.91;100.00
59608;BME280;45426;44.726;10.390;2023-10-31T09:56:14;99549.75;;;20.30;100.00
59608;BME280;45426;44.726;10.390;2023-10-31T09:58:39;99541.72;;;20.63;100.00
59608;BME280;45426;44.726;10.390;2023-10-31T10:01:06;99543.59;;;21.09;100.00
59608;BME280;45426;44.726;10.390;2023-10-31T10:03:32;99554.56;;;21.53;100.00
59608;BME280;45426;44.726;10.390;2023-10-31T10:05:58;99546.06;;;21.24;100.00
59608;BME280;45426;44.726;10.390;2023-10-31T10:08:23;99548.44;;;21.62;100.00
59608;BME280;45426;44.726;10.390;2023-10-31T10:10:50;99546.75;;;21.68;100.00
59608;BME280;45426;44.726;10.390;2023-10-31T10:13:23;99543.22;;;21.07;100.00
59608;BME280;45426;44.726;10.390;2023-10-31T10:15:50;99543.31;;;20.84;100.00
59608;BME280;45426;44.726;10.390;2023-10-31T10:18:34;99550.63;;;20.70;100.00
59608;BME280;45426;44.726;10.390;2023-10-31T10:21:04;99552.09;;;21.19;100.00
59608;BME280;45426;44.726;10.390;2023-10-31T10:23:31;99558.41;;;21.19;100.00
59608;BME280;45426;44.726;10.390;2023-10-31T10:25:58;99554.75;;;21.42;100.00
59608;BME280;45426;44.726;10.390;2023-10-31T10:28:25;99554.88;;;21.91;100.00
59608;BME280;45426;44.726;10.390;2023-10-31T10:30:51;99555.69;;;21.56;100.00
59608;BME280;45426;44.726;10.390;2023-10-31T10:33:18;99557.97;;;21.94;100.00
59608;BME280;45426;44.726;10.390;2023-10-31T10:35:44;99559.59;;;21.75;100.00
59608;BME280;45426;44.726;10.390;2023-10-31T10:38:14;99548.66;;;22.20;100.00
59608;BME280;45426;44.726;10.390;2023-10-31T10:40:44;99549.19;;;22.15;100.00
59608;BME280;45426;44.726;10.390;2023-10-31T10:45:43;99542.97;;;22.27;100.00
59608;BME280;45426;44.726;10.390;2023-10-31T10:48:15;99545.19;;;22.65;100.00
59608;BME280;45426;44.726;10.390;2023-10-31T10:50:43;99541.47;;;22.23;100.00
59608;BME280;45426;44.726;10.390;2023-10-31T10:53:24;99545.91;;;22.20;100.00
59608;BME280;45426;44.726;10.390;2023-10-31T10:55:56;99540.53;;;21.97;100.00
59608;BME280;45426;44.726;10.390;2023-10-31T10:58:27;99536.75;;;21.90;100.00
59608;BME280;45426;44.726;10.390;2023-10-31T11:00:58;99531.72;;;22.18;100.00
59608;BME280;45426;44.726;10.390;2023-10-31T11:03:24;99528.59;;;22.49;100.00
59608;BME280;45426;44.726;10.390;2023-10-31T11:05:51;99514.44;;;21.98;100.00
59608;BME280;45426;44.726;10.390;2023-10-31T11:08:17;99522.22;;;22.03;100.00
59608;BME280;45426;44.726;10.390;2023-10-31T11:10:45;99512.38;;;22.18;100.00
59608;BME280;45426;44.726;10.390;2023-10-31T11:13:11;99514.34;;;22.18;100.00
59608;BME280;45426;44.726;10.390;2023-10-31T11:15:37;99519.44;;;22.03;100.00
59608;BME280;45426;44.726;10.390;2023-10-31T11:18:04;99515.38;;;22.40;100.00
59608;BME280;45426;44.726;10.390;2023-10-31T11:20:31;99516.19;;;22.54;100.00
59608;BME280;45426;44.726;10.390;2023-10-31T11:22:56;99506.81;;;22.35;100.00
59608;BME280;45426;44.726;10.390;2023-10-31T11:25:23;99519.44;;;22.19;100.00
59608;BME280;45426;44.726;10.390;2023-10-31T11:27:53;99509.31;;;22.45;100.00
59608;BME280;45426;44.726;10.390;2023-10-31T11:32:48;99511.63;;;22.63;100.00
59608;BME280;45426;44.726;10.390;2023-10-31T11:35:16;99507.66;;;22.48;100.00
59608;BME280;45426;44.726;10.390;2023-10-31T11:37:42;99509.25;;;22.78;100.00
59608;BME280;45426;44.726;10.390;2023-10-31T11:42:38;99513.09;;;22.52;100.00
59608;BME280;45426;44.726;10.390;2023-10-31T11:45:07;99507.31;;;22.46;100.00
59608;BME280;45426;44.726;10.390;2023-10-31T11:47:49;99501.56;;;22.70;100.00
59608;BME280;45426;44.726;10.390;2023-10-31T11:50:15;99506.41;;;22.65;100.00
59608;BME280;45426;44.726;10.390;2023-10-31T11:52:41;99496.19;;;22.17;100.00
59608;BME280;45426;44.726;10.390;2023-10-31T11:55:10;99500.13;;;22.78;100.00
59608;BME280;45426;44.726;10.390;2023-10-31T11:57:37;99497.06;;;22.59;100.00
59608;BME280;45426;44.726;10.390;2023-10-31T12:00:03;99509.50;;;22.97;100.00
59608;BME280;45426;44.726;10.390;2023-10-31T12:02:30;99516.59;;;22.68;100.00
59608;BME280;45426;44.726;10.390;2023-10-31T12:05:12;99516.13;;;22.57;100.00
59608;BME280;45426;44.726;10.390;2023-10-31T12:07:45;99512.78;;;22.79;100.00
59608;BME280;45426;44.726;10.390;2023-10-31T12:10:11;99520.44;;;22.58;100.00
59608;BME280;45426;44.726;10.390;2023-10-31T12:12:37;99512.31;;;22.51;100.00
59608;BME280;45426;44.726;10.390;2023-10-31T12:15:09;99520.31;;;22.78;100.00
59608;BME280;45426;44.726;10.390;2023-10-31T12:17:35;99523.59;;;22.73;100.00
59608;BME280;45426;44.726;10.390;2023-10-31T12:20:05;99517.28;;;22.43;100.00
59608;BME280;45426;44.726;10.390;2023-10-31T12:22:32;99510.91;;;22.59;100.00
59608;BME280;45426;44.726;10.390;2023-10-31T12:25:04;99519.03;;;22.66;100.00
59608;BME280;45426;44.726;10.390;2023-10-31T12:27:47;99514.13;;;22.87;100.00
59608;BME280;45426;44.726;10.390;2023-10-31T12:30:16;99522.03;;;22.72;100.00
59608;BME280;45426;44.726;10.390;2023-10-31T12:32:42;99519.50;;;22.78;100.00
59608;BME280;45426;44.726;10.390;2023-10-31T12:35:13;99523.38;;;22.67;100.00
59608;BME280;45426;44.726;10.390;2023-10-31T12:37:46;99531.44;;;22.62;100.00
59608;BME280;45426;44.726;10.390;2023-10-31T12:40:17;99523.19;;;23.17;100.00
59608;BME280;45426;44.726;10.390;2023-10-31T12:42:44;99527.09;;;22.90;100.00